createdAt,value
2018-05-26T00:00:05.236Z,58
2018-05-26T00:15:05.171Z,59.8
2018-05-26T00:30:04.869Z,59.4
2018-05-26T00:45:04.558Z,59.4
2018-05-26T01:00:04.560Z,59.7
2018-05-26T01:15:04.606Z,60.6
2018-05-26T01:30:05.321Z,60.3
2018-05-26T01:45:04.846Z,60.5
2018-05-26T02:00:05.192Z,61.8
2018-05-26T02:15:04.990Z,61.2
2018-05-26T02:30:04.786Z,62.4
2018-05-26T02:45:04.684Z,62.5
2018-05-26T03:00:05.164Z,63.7
2018-05-26T03:15:04.909Z,62.7
2018-05-26T03:30:04.903Z,62.4
2018-05-26T03:45:05.001Z,62.7
2018-05-26T04:00:04.454Z,63
2018-05-26T04:15:06.137Z,63.6
2018-05-26T04:30:05.275Z,63
2018-05-26T04:45:04.983Z,63.7
2018-05-26T05:00:05.209Z,63.7
2018-05-26T05:15:04.949Z,63.7
2018-05-26T05:30:05.333Z,65.5
2018-05-26T05:45:04.828Z,64.8
2018-05-26T06:00:04.948Z,64.3
2018-05-26T06:15:05.614Z,64.6
2018-05-26T06:30:05.156Z,63.6
2018-05-26T06:45:05.207Z,62.6
2018-05-26T07:00:05.307Z,61
2018-05-26T07:15:04.783Z,60
2018-05-26T07:30:04.703Z,59.5
2018-05-26T07:45:05.247Z,55.8
2018-05-26T08:00:04.921Z,56
2018-05-26T08:15:04.529Z,54
2018-05-26T08:30:05.260Z,52.7
2018-05-26T08:45:05.471Z,52.4
2018-05-26T09:00:04.455Z,51.6
2018-05-26T09:15:05.885Z,51.1
2018-05-26T09:30:04.999Z,50.9
2018-05-26T09:45:09.862Z,49.1
2018-05-26T10:00:04.442Z,50.3
2018-05-26T10:15:05.003Z,51
2018-05-26T10:30:05.309Z,49.9
2018-05-26T10:45:05.180Z,48.9
2018-05-26T11:00:07.045Z,50.4
2018-05-26T11:15:05.456Z,50.2
2018-05-26T11:30:05.455Z,50.7
2018-05-26T11:45:04.863Z,50.5
2018-05-26T12:00:04.300Z,50
2018-05-26T12:15:05.190Z,48.3
2018-05-26T12:30:04.987Z,49.2
2018-05-26T12:45:04.983Z,49.6
2018-05-26T13:00:05.154Z,49.2
2018-05-26T13:15:05.128Z,49.8
2018-05-26T13:30:04.859Z,49.1
2018-05-26T13:45:04.495Z,48.6
2018-05-26T14:00:05.012Z,47.1
2018-05-26T14:15:04.457Z,46.9
2018-05-26T14:30:05.168Z,45.7
2018-05-26T14:45:05.277Z,44.9
2018-05-26T15:00:04.692Z,44.9
2018-05-26T15:15:04.573Z,45
2018-05-26T15:30:04.752Z,45.4
2018-05-26T15:45:04.885Z,44
2018-05-26T16:00:04.363Z,45.1
2018-05-26T16:15:04.621Z,44.9
2018-05-26T16:30:04.426Z,45.1
2018-05-26T16:45:04.395Z,44.8
2018-05-26T17:00:04.531Z,45.7
2018-05-26T17:15:05.127Z,46.8
2018-05-26T17:30:04.617Z,47.1
2018-05-26T17:45:04.741Z,48.5
2018-05-26T18:00:05.994Z,49.1
2018-05-26T18:15:04.827Z,49
2018-05-26T18:30:04.534Z,49.9
2018-05-26T18:45:04.484Z,50.9
2018-05-26T19:00:05.046Z,52
2018-05-26T19:15:04.772Z,53.5
2018-05-26T19:30:05.073Z,54
2018-05-26T19:45:05.115Z,55.9
2018-05-26T20:00:04.581Z,54.8
2018-05-26T20:15:04.751Z,54.3
2018-05-26T20:30:05.262Z,53.7
2018-05-26T20:45:05.603Z,52.3
2018-05-26T21:00:05.449Z,52.2
2018-05-26T21:15:06.160Z,50.5
2018-05-26T21:30:04.784Z,51.2
2018-05-26T21:45:05.191Z,50.3
2018-05-26T22:00:05.597Z,50.2
2018-05-26T22:15:05.077Z,50.9
2018-05-26T22:30:05.097Z,53.2
2018-05-26T22:45:06.351Z,55
2018-05-26T23:00:04.955Z,56.3
2018-05-26T23:15:04.738Z,56.1
2018-05-26T23:30:04.620Z,57.1
2018-05-26T23:45:05.240Z,57.9
